Time;durP1;ratioP1;P1;durP2;ratioP2;P2;SDS_P1;SDS_P2;PMS_P1;PMS_P2;Temp;Humidity;BMP_temperature;BMP_pressure;BME280_temperature;BME280_humidity;BME280_pressure;Samples;Min_cycle;Max_cycle;Signal;HPM_P1;HPM_P2
2022/06/28 00:00:15;;;;;;;22.38;15.50;;;21.10;99.90;;;;;;2114655;28;20034;-66
2022/06/28 00:01:16;;;;;;;17.35;15.50;;;21.10;99.90;;;;;;2113671;28;20047;-66
2022/06/28 00:02:17;;;;;;;17.63;15.38;;;21.10;99.90;;;;;;2113834;28;20027;-66
2022/06/28 00:03:17;;;;;;;18.33;16.33;;;21.00;99.90;;;;;;2114550;28;20028;-65
2022/06/28 00:04:19;;;;;;;19.92;16.08;;;21.00;99.90;;;;;;2114531;28;20034;-66
2022/06/28 00:05:21;;;;;;;18.05;15.65;;;21.00;99.90;;;;;;2114300;28;20077;-66
2022/06/28 00:06:21;;;;;;;24.48;18.83;;;21.00;99.90;;;;;;2114165;28;20024;-66
2022/06/28 00:07:22;;;;;;;20.38;16.55;;;21.00;99.90;;;;;;2114292;28;20115;-66
2022/06/28 00:08:23;;;;;;;19.48;17.35;;;20.90;99.90;;;;;;2114150;28;20032;-66
2022/06/28 00:09:25;;;;;;;18.33;16.33;;;20.90;99.90;;;;;;2114150;28;20024;-66
2022/06/28 00:10:26;;;;;;;19.00;16.73;;;20.90;99.90;;;;;;2114347;28;20050;-66
2022/06/28 00:11:26;;;;;;;20.23;16.38;;;20.90;99.90;;;;;;2114272;28;20135;-66
2022/06/28 00:12:27;;;;;;;18.40;16.40;;;20.80;99.90;;;;;;2114818;28;20039;-66
2022/06/28 00:13:28;;;;;;;18.63;15.65;;;20.80;99.90;;;;;;2114787;28;20066;-67
2022/06/28 00:17:21;;;;;;;20.85;18.40;;;20.70;99.90;;;;;;2093391;28;20087;-66
2022/06/28 00:18:22;;;;;;;24.10;18.65;;;20.60;99.90;;;;;;2106507;28;20088;-66
2022/06/28 00:19:22;;;;;;;22.17;17.95;;;20.60;99.90;;;;;;2114329;28;20028;-66
2022/06/28 00:20:23;;;;;;;20.27;18.02;;;20.60;99.90;;;;;;2113943;28;20058;-66
2022/06/28 00:21:24;;;;;;;23.05;18.73;;;20.60;99.90;;;;;;2113400;28;20040;-67
2022/06/28 00:22:25;;;;;;;23.40;18.67;;;20.60;99.90;;;;;;2114256;28;20473;-66
2022/06/28 00:23:25;;;;;;;21.42;18.70;;;20.60;99.90;;;;;;2114172;28;20820;-66
2022/06/28 00:24:27;;;;;;;21.13;18.50;;;20.50;99.90;;;;;;2114280;28;20042;-69
2022/06/28 00:25:27;;;;;;;25.25;20.02;;;20.50;99.90;;;;;;2113600;28;20028;-66
2022/06/28 00:26:28;;;;;;;26.90;20.48;;;20.50;99.90;;;;;;2113545;28;20497;-66
2022/06/28 00:27:29;;;;;;;24.67;20.75;;;20.50;99.90;;;;;;2114297;28;20028;-67
2022/06/28 00:28:30;;;;;;;22.40;19.50;;;20.40;99.90;;;;;;2113902;28;20110;-67
2022/06/28 00:29:30;;;;;;;23.50;20.08;;;20.30;99.90;;;;;;2113979;28;20023;-66
2022/06/28 00:30:31;;;;;;;26.48;22.55;;;20.30;99.90;;;;;;2114227;28;20066;-70
2022/06/28 00:31:32;;;;;;;29.13;23.67;;;20.20;99.90;;;;;;2113165;28;20052;-68
2022/06/28 00:32:33;;;;;;;28.60;23.45;;;20.20;99.90;;;;;;2113728;28;20028;-67
2022/06/28 00:33:33;;;;;;;32.45;25.63;;;20.10;99.90;;;;;;2113672;28;20036;-67
2022/06/28 00:34:34;;;;;;;29.83;25.05;;;20.10;99.90;;;;;;2113670;28;20052;-67
2022/06/28 00:35:35;;;;;;;32.85;26.83;;;20.00;99.90;;;;;;2096225;28;20489;-67
2022/06/28 00:36:36;;;;;;;32.50;27.38;;;19.90;99.90;;;;;;2104657;28;20096;-67
2022/06/28 00:37:36;;;;;;;36.22;28.25;;;19.90;99.90;;;;;;2113565;28;20028;-66
2022/06/28 00:38:37;;;;;;;39.53;29.67;;;19.80;99.90;;;;;;2113387;28;20321;-68
2022/06/28 00:39:38;;;;;;;42.33;29.58;;;19.60;99.90;;;;;;2113368;28;20035;-67
2022/06/28 00:40:49;;;;;;;40.97;29.73;;;19.60;99.90;;;;;;2113360;28;20020;-66
2022/06/28 00:41:50;;;;;;;43.90;30.00;;;19.50;99.90;;;;;;2113253;28;20034;-66
2022/06/28 00:42:51;;;;;;;38.72;28.45;;;19.60;99.90;;;;;;2113919;28;20400;-66
2022/06/28 00:43:53;;;;;;;31.88;25.73;;;19.50;99.90;;;;;;2113271;28;20595;-66
2022/06/28 00:44:57;;;;;;;34.38;26.30;;;19.40;99.90;;;;;;2113260;28;20028;-65
2022/06/28 00:45:58;;;;;;;39.25;28.30;;;19.40;99.90;;;;;;2104901;28;20143;-67
2022/06/28 00:47:00;;;;;;;33.95;24.92;;;19.30;99.90;;;;;;2105003;28;20052;-67
2022/06/28 00:48:01;;;;;;;30.35;24.00;;;19.30;99.90;;;;;;2113916;28;20027;-67
2022/06/28 00:49:03;;;;;;;33.65;25.23;;;19.40;99.90;;;;;;2113814;28;20023;-66
2022/06/28 00:50:04;;;;;;;34.08;25.73;;;19.30;99.90;;;;;;2113868;28;20030;-67
2022/06/28 00:51:08;;;;;;;31.77;24.65;;;19.20;99.90;;;;;;2113702;28;20024;-67
2022/06/28 00:52:11;;;;;;;37.83;26.13;;;19.20;99.90;;;;;;2113302;28;20026;-67
2022/06/28 00:53:16;;;;;;;32.05;24.27;;;19.10;99.90;;;;;;2113469;28;20039;-68
2022/06/28 00:54:19;;;;;;;36.58;25.98;;;19.10;99.90;;;;;;2105163;28;20035;-67
2022/06/28 00:55:20;;;;;;;41.17;28.10;;;18.90;99.90;;;;;;2113300;28;20028;-67
2022/06/28 00:56:21;;;;;;;45.85;28.83;;;18.80;99.90;;;;;;2113001;28;20020;-67
2022/06/28 00:57:23;;;;;;;34.80;25.02;;;18.80;99.90;;;;;;2113478;28;20028;-67
2022/06/28 00:58:23;;;;;;;31.40;22.90;;;18.80;99.90;;;;;;2113193;28;20103;-67
2022/06/28 00:59:24;;;;;;;28.00;22.98;;;18.70;99.90;;;;;;2104825;28;20420;-66
2022/06/28 01:00:25;;;;;;;31.35;24.17;;;18.70;99.90;;;;;;2113192;28;20515;-68
2022/06/28 01:01:27;;;;;;;28.58;22.77;;;18.70;99.90;;;;;;2112925;28;20149;-68
2022/06/28 01:02:29;;;;;;;33.10;24.85;;;18.70;99.90;;;;;;2104606;28;20043;-67
2022/06/28 01:03:30;;;;;;;31.73;24.10;;;18.60;99.90;;;;;;2096828;28;20021;-67
2022/06/28 01:04:31;;;;;;;32.40;24.42;;;18.60;99.90;;;;;;2104544;28;20390;-66
2022/06/28 01:05:34;;;;;;;34.35;25.67;;;18.60;99.90;;;;;;2113145;28;20020;-67
2022/06/28 01:06:38;;;;;;;41.28;27.25;;;18.60;99.90;;;;;;2113644;28;20020;-67
2022/06/28 01:07:40;;;;;;;33.03;25.08;;;18.50;99.90;;;;;;2113573;28;20034;-67
2022/06/28 01:08:44;;;;;;;39.85;26.63;;;18.50;99.90;;;;;;2112886;28;20508;-67
2022/06/28 01:09:44;;;;;;;34.28;25.17;;;18.30;99.90;;;;;;2113205;28;20031;-67
2022/06/28 01:10:46;;;;;;;34.97;25.50;;;18.20;99.90;;;;;;2113345;28;20134;-67
2022/06/28 01:11:49;;;;;;;32.63;25.17;;;18.20;99.90;;;;;;2112924;28;20036;-67
2022/06/28 01:12:49;;;;;;;33.05;24.30;;;18.20;99.90;;;;;;2104685;28;20111;-67
2022/06/28 01:13:53;;;;;;;35.78;28.17;;;18.20;99.90;;;;;;2104717;28;20115;-68
2022/06/28 01:14:55;;;;;;;40.88;27.98;;;18.20;99.90;;;;;;2104910;28;20028;-69
2022/06/28 01:16:04;;;;;;;42.08;30.23;;;18.20;99.90;;;;;;2113236;28;20023;-68
2022/06/28 01:17:06;;;;;;;51.05;31.35;;;18.10;99.90;;;;;;2113743;28;20726;-67
2022/06/28 01:18:23;;;;;;;41.38;29.05;;;18.10;99.90;;;;;;2113025;28;20109;-67
2022/06/28 01:19:27;;;;;;;39.22;28.52;;;18.00;99.90;;;;;;2113025;28;20039;-68
2022/06/28 01:20:35;;;;;;;40.28;29.67;;;18.10;99.90;;;;;;2112523;28;20028;-68
2022/06/28 01:22:04;;;;;;;68.75;35.75;;;18.10;99.90;;;;;;2111879;28;20096;-67
2022/06/28 01:23:06;;;;;;;49.35;33.35;;;18.10;99.90;;;;;;2104700;28;20063;-67
2022/06/28 01:24:07;;;;;;;58.28;35.47;;;18.00;99.90;;;;;;2104914;28;20106;-68
2022/06/28 01:25:19;;;;;;;53.72;35.58;;;18.10;99.90;;;;;;2112968;28;20497;-68
2022/06/28 01:26:23;;;;;;;50.47;33.40;;;18.10;99.90;;;;;;2112832;28;20481;-67
2022/06/28 01:27:25;;;;;;;43.00;31.65;;;18.10;99.90;;;;;;2104633;28;20040;-68
2022/06/28 01:28:25;;;;;;;47.60;32.05;;;18.10;99.90;;;;;;2104525;28;20157;-68
2022/06/28 01:29:32;;;;;;;46.33;31.65;;;18.10;99.90;;;;;;2097246;28;20105;-67
2022/06/28 01:31:06;;;;;;;44.05;30.42;;;18.00;99.90;;;;;;2084169;28;20133;-67
2022/06/28 01:32:07;;;;;;;44.72;30.95;;;18.00;99.90;;;;;;2105720;28;20039;-67
2022/06/28 01:33:09;;;;;;;42.80;29.63;;;18.10;99.90;;;;;;2113129;28;20557;-67
2022/06/28 01:34:10;;;;;;;52.92;33.67;;;18.10;99.90;;;;;;2096281;28;20036;-67
2022/06/28 01:35:12;;;;;;;47.22;31.17;;;18.10;99.90;;;;;;2104724;28;20536;-68
2022/06/28 01:36:13;;;;;;;44.83;30.27;;;18.20;99.90;;;;;;2113700;28;20031;-67
2022/06/28 01:37:14;;;;;;;44.55;29.80;;;18.20;99.90;;;;;;2112733;28;20475;-67
2022/06/28 01:38:16;;;;;;;44.70;29.88;;;18.20;99.90;;;;;;2104343;28;20103;-67
2022/06/28 01:39:17;;;;;;;44.92;30.33;;;18.20;99.90;;;;;;2113097;28;20439;-67
2022/06/28 01:40:18;;;;;;;40.97;29.25;;;18.20;99.90;;;;;;2112874;28;20102;-67
2022/06/28 01:41:32;;;;;;;40.80;28.45;;;18.30;99.90;;;;;;2104454;28;20474;-68
2022/06/28 01:42:38;;;;;;;40.00;28.25;;;18.30;99.90;;;;;;2104504;28;20031;-67
2022/06/28 01:43:39;;;;;;;42.10;28.90;;;18.30;99.90;;;;;;2096882;28;20037;-67
2022/06/28 01:44:41;;;;;;;44.55;30.05;;;18.30;99.90;;;;;;2112915;28;20028;-67
2022/06/28 01:45:57;;;;;;;42.78;28.83;;;18.40;99.90;;;;;;2104607;28;20028;-67
2022/06/28 01:47:04;;;;;;;41.55;27.88;;;18.40;99.90;;;;;;2098508;28;20024;-67
2022/06/28 01:48:23;;;;;;;40.65;27.98;;;18.50;99.90;;;;;;2113065;28;20040;-67
2022/06/28 01:49:44;;;;;;;39.97;28.23;;;18.50;99.90;;;;;;2112907;28;20540;-67
2022/06/28 01:50:46;;;;;;;36.25;26.38;;;18.50;99.90;;;;;;2112582;28;20028;-68
2022/06/28 01:51:48;;;;;;;37.97;27.15;;;18.50;99.90;;;;;;2104043;28;20032;-67
2022/06/28 01:52:54;;;;;;;47.65;30.92;;;18.50;99.90;;;;;;2105160;28;20024;-68
2022/06/28 01:54:16;;;;;;;39.08;28.05;;;18.40;99.90;;;;;;2113365;28;20032;-68
2022/06/28 01:55:17;;;;;;;37.10;27.20;;;18.40;99.90;;;;;;2113533;28;20161;-68
2022/06/28 01:56:21;;;;;;;34.47;26.23;;;18.40;99.90;;;;;;2112525;28;20520;-68
2022/06/28 01:57:38;;;;;;;37.58;26.75;;;18.40;99.90;;;;;;2104185;28;20064;-68
2022/06/28 01:58:39;;;;;;;38.42;27.20;;;18.40;99.90;;;;;;2106124;28;20022;-68
2022/06/28 01:59:41;;;;;;;38.83;27.55;;;18.30;99.90;;;;;;2104161;28;20482;-69
2022/06/28 02:00:53;;;;;;;39.30;26.20;;;18.30;99.90;;;;;;2112914;28;20087;-68
2022/06/28 02:01:54;;;;;;;35.60;26.08;;;18.30;99.90;;;;;;2112416;28;20032;-67
2022/06/28 02:02:57;;;;;;;40.28;27.85;;;18.30;99.90;;;;;;2104472;28;20396;-68
2022/06/28 02:04:20;;;;;;;38.20;26.77;;;18.30;99.90;;;;;;2106242;28;20122;-67
2022/06/28 02:05:23;;;;;;;;;;;18.30;99.90;;;;;;2113153;28;20556;-65
2022/06/28 02:06:25;;;;;;;39.53;28.05;;;18.30;99.90;;;;;;2103933;28;19912;-67
2022/06/28 02:07:28;;;;;;;49.90;32.22;;;18.30;99.90;;;;;;2096627;28;20024;-66
2022/06/28 02:08:28;;;;;;;40.05;28.33;;;18.30;99.90;;;;;;2104066;28;20419;-67
2022/06/28 02:09:33;;;;;;;51.25;33.20;;;18.30;99.90;;;;;;2104813;28;20036;-67
2022/06/28 02:10:34;;;;;;;46.33;31.38;;;18.30;99.90;;;;;;2104017;28;20581;-66
2022/06/28 02:11:35;;;;;;;46.33;30.65;;;18.30;99.90;;;;;;2103490;28;20036;-67
2022/06/28 02:12:37;;;;;;;51.70;33.30;;;18.30;99.90;;;;;;2112479;28;20055;-67
2022/06/28 02:13:38;;;;;;;46.75;31.45;;;18.30;99.90;;;;;;2113582;28;20500;-67
2022/06/28 02:14:39;;;;;;;43.08;29.98;;;18.30;99.90;;;;;;2104355;28;20027;-67
2022/06/28 02:15:40;;;;;;;42.28;29.02;;;18.30;99.90;;;;;;2104943;28;20481;-66
2022/06/28 02:16:41;;;;;;;40.72;28.55;;;18.30;99.90;;;;;;2113951;28;20023;-66
2022/06/28 02:17:43;;;;;;;42.90;28.70;;;18.30;99.90;;;;;;2105025;28;20028;-67
2022/06/28 02:18:45;;;;;;;42.05;28.92;;;18.30;99.90;;;;;;2096773;28;20048;-67
2022/06/28 02:19:47;;;;;;;42.42;27.63;;;18.30;99.90;;;;;;2105904;28;20575;-67
2022/06/28 02:20:48;;;;;;;39.40;27.98;;;18.40;99.90;;;;;;2106447;28;20078;-67
2022/06/28 02:21:48;;;;;;;39.97;28.25;;;18.30;99.90;;;;;;2115288;28;20492;-67
2022/06/28 02:22:52;;;;;;;38.15;26.77;;;18.40;99.90;;;;;;2107400;28;20051;-66
2022/06/28 02:23:52;;;;;;;40.83;27.63;;;18.40;99.90;;;;;;2107353;28;20028;-67
2022/06/28 02:24:53;;;;;;;41.20;27.83;;;18.40;99.90;;;;;;2116258;28;20027;-67
2022/06/28 02:25:54;;;;;;;40.03;27.63;;;18.40;99.90;;;;;;2117139;28;20097;-67
2022/06/28 02:26:55;;;;;;;36.88;25.80;;;18.40;99.90;;;;;;2115636;28;20035;-67
2022/06/28 02:27:56;;;;;;;38.38;26.00;;;18.40;99.90;;;;;;2115686;28;20034;-66
2022/06/28 02:28:56;;;;;;;38.83;26.95;;;18.50;99.90;;;;;;2115472;28;20043;-66
2022/06/28 02:29:59;;;;;;;41.42;26.95;;;18.50;99.90;;;;;;2107566;28;20123;-67
2022/06/28 02:31:00;;;;;;;39.17;28.38;;;18.50;99.90;;;;;;2107523;28;20076;-67
2022/06/28 02:32:00;;;;;;;42.10;29.25;;;18.50;99.90;;;;;;2115783;28;20680;-67
2022/06/28 02:33:01;;;;;;;43.35;29.02;;;18.50;99.90;;;;;;2115242;28;20026;-66
2022/06/28 02:34:03;;;;;;;45.28;29.35;;;18.50;99.90;;;;;;2106858;28;20024;-67
2022/06/28 02:40:22;;;;;;;43.47;28.90;;;18.40;99.90;;;;;;2114067;28;20026;-66
2022/06/28 02:41:23;;;;;;;41.47;29.30;;;18.40;99.90;;;;;;2105491;28;20051;-66
2022/06/28 02:42:23;;;;;;;45.25;28.23;;;18.40;99.90;;;;;;2097425;28;20129;-66
2022/06/28 02:43:24;;;;;;;40.08;27.48;;;18.30;99.90;;;;;;2105784;28;20016;-67
2022/06/28 02:44:26;;;;;;;43.85;29.42;;;18.40;99.90;;;;;;2113174;28;20019;-66
2022/06/28 02:45:30;;;;;;;42.30;28.45;;;18.40;99.90;;;;;;2112559;28;20435;-66
2022/06/28 02:46:31;;;;;;;41.95;28.15;;;18.40;99.90;;;;;;2112594;28;20034;-66
2022/06/28 02:47:31;;;;;;;43.42;28.80;;;18.40;99.90;;;;;;2112576;28;20040;-67
2022/06/28 02:48:34;;;;;;;43.60;29.38;;;18.30;99.90;;;;;;2112206;28;20031;-66
2022/06/28 02:49:35;;;;;;;48.97;29.88;;;18.40;99.90;;;;;;2112741;28;20028;-66
2022/06/28 02:50:35;;;;;;;41.80;29.20;;;18.40;99.90;;;;;;2104318;28;20024;-67
2022/06/28 02:51:36;;;;;;;75.55;39.67;;;18.40;99.90;;;;;;2104144;28;20070;-68
2022/06/28 02:52:37;;;;;;;60.08;37.90;;;18.30;99.90;;;;;;2112585;28;20158;-67
2022/06/28 02:53:38;;;;;;;63.55;39.13;;;18.20;99.90;;;;;;2112427;28;20731;-67
2022/06/28 02:54:39;;;;;;;52.63;35.47;;;18.10;99.90;;;;;;2103932;28;20032;-67
2022/06/28 02:55:39;;;;;;;49.83;33.30;;;18.20;99.90;;;;;;2104301;28;20082;-67
2022/06/28 02:56:42;;;;;;;49.47;33.33;;;18.10;99.90;;;;;;2104467;28;20038;-68
2022/06/28 02:57:43;;;;;;;63.75;39.70;;;18.20;99.90;;;;;;2106543;28;20031;-67
2022/06/28 02:58:43;;;;;;;51.25;35.88;;;18.10;99.90;;;;;;2096671;28;20028;-67
2022/06/28 02:59:44;;;;;;;63.17;40.05;;;18.10;99.90;;;;;;2104080;28;20032;-68
2022/06/28 03:00:45;;;;;;;51.92;35.13;;;18.10;99.90;;;;;;2104088;28;20020;-67
2022/06/28 03:01:45;;;;;;;49.40;34.45;;;18.10;99.90;;;;;;2095538;28;20059;-67
2022/06/28 03:02:47;;;;;;;46.00;31.95;;;18.00;99.90;;;;;;2112810;28;20560;-68
2022/06/28 03:03:50;;;;;;;56.35;37.17;;;18.00;99.90;;;;;;2112458;28;20059;-67
2022/06/28 03:04:50;;;;;;;48.60;33.47;;;18.00;99.90;;;;;;2112481;28;20097;-67
2022/06/28 03:05:51;;;;;;;44.25;31.77;;;18.00;99.90;;;;;;2112381;28;20481;-68
2022/06/28 03:06:53;;;;;;;45.65;31.67;;;18.00;99.90;;;;;;2104528;28;20047;-68
2022/06/28 03:07:53;;;;;;;63.47;35.65;;;17.90;99.90;;;;;;2104864;28;20044;-68
2022/06/28 03:08:57;;;;;;;47.50;33.10;;;17.80;99.90;;;;;;2105410;28;20027;-67
2022/06/28 03:09:58;;;;;;;44.28;31.92;;;17.60;99.90;;;;;;2104490;28;20538;-67
2022/06/28 03:10:59;;;;;;;41.80;31.90;;;17.60;99.90;;;;;;2104542;28;20474;-68
2022/06/28 03:12:00;;;;;;;44.80;31.52;;;17.50;99.90;;;;;;2104050;28;20032;-67
2022/06/28 03:13:01;;;;;;;45.30;31.63;;;17.50;99.90;;;;;;2112597;28;20054;-67
2022/06/28 03:14:03;;;;;;;48.63;32.83;;;17.60;99.90;;;;;;2112237;28;20019;-67
2022/06/28 03:15:05;;;;;;;53.80;34.95;;;17.60;99.90;;;;;;2103872;28;20046;-67
2022/06/28 03:16:06;;;;;;;49.47;32.33;;;17.50;99.90;;;;;;2112213;28;20024;-67
2022/06/28 03:17:07;;;;;;;44.88;31.00;;;17.60;99.90;;;;;;2112147;28;20081;-67
2022/06/28 03:18:08;;;;;;;42.80;29.83;;;17.50;99.90;;;;;;2103894;28;20039;-67
2022/06/28 03:19:09;;;;;;;35.70;26.50;;;17.50;99.90;;;;;;2103750;28;20024;-67
2022/06/28 03:20:10;;;;;;;34.25;26.42;;;17.50;99.90;;;;;;2103824;28;20031;-67
2022/06/28 03:21:12;;;;;;;42.40;29.25;;;17.50;99.90;;;;;;2111895;28;20028;-68
2022/06/28 03:22:12;;;;;;;40.42;28.75;;;17.50;99.90;;;;;;2112120;28;20038;-67
2022/06/28 03:23:14;;;;;;;45.47;28.63;;;17.60;99.90;;;;;;2112007;28;20558;-68
2022/06/28 03:24:17;;;;;;;40.25;27.33;;;17.50;99.90;;;;;;2103996;28;20036;-67
2022/06/28 03:25:18;;;;;;;36.60;26.55;;;17.40;99.90;;;;;;2095312;28;20512;-69
2022/06/28 03:26:20;;;;;;;35.35;25.45;;;17.50;99.90;;;;;;2095941;28;20610;-67
2022/06/28 03:27:21;;;;;;;35.83;26.65;;;17.50;99.90;;;;;;2103642;28;20032;-67
2022/06/28 03:28:21;;;;;;;34.13;25.63;;;17.50;99.90;;;;;;2111944;28;20026;-67
2022/06/28 03:29:22;;;;;;;34.33;25.83;;;17.50;99.90;;;;;;2112083;28;20024;-67
2022/06/28 03:30:23;;;;;;;32.53;25.38;;;17.60;99.90;;;;;;2111929;28;20523;-67
2022/06/28 03:31:24;;;;;;;57.75;34.35;;;17.60;99.90;;;;;;2103472;28;20028;-67
2022/06/28 03:32:26;;;;;;;44.78;32.00;;;17.60;99.90;;;;;;2095633;28;20118;-67
2022/06/28 03:33:27;;;;;;;52.50;33.72;;;17.60;99.90;;;;;;2103816;28;20085;-67
2022/06/28 03:34:28;;;;;;;47.00;32.67;;;17.70;99.90;;;;;;2103631;28;20016;-67
2022/06/28 03:35:29;;;;;;;57.00;35.95;;;17.70;99.90;;;;;;2104609;28;20064;-67
2022/06/28 03:36:30;;;;;;;44.95;32.53;;;17.80;99.90;;;;;;2114211;28;20023;-67
2022/06/28 03:37:46;;;;;;;46.33;31.55;;;17.80;99.90;;;;;;2113945;28;20020;-67
2022/06/28 03:38:47;;;;;;;68.70;37.40;;;17.80;99.90;;;;;;2113002;28;20161;-66
2022/06/28 03:39:55;;;;;;;47.85;33.63;;;17.70;99.90;;;;;;2105241;28;20066;-67
2022/06/28 03:40:57;;;;;;;56.20;36.22;;;17.70;99.90;;;;;;2104393;28;20115;-66
2022/06/28 03:41:58;;;;;;;50.53;34.78;;;17.70;99.90;;;;;;2111877;28;20023;-67
2022/06/28 03:42:59;;;;;;;46.65;32.97;;;17.80;99.90;;;;;;2112105;28;20028;-67
2022/06/28 03:44:00;;;;;;;59.90;38.85;;;17.70;99.90;;;;;;2095533;28;20028;-66
2022/06/28 03:45:00;;;;;;;55.13;36.28;;;17.80;99.90;;;;;;2103762;28;20371;-66
2022/06/28 03:46:01;;;;;;;88.03;44.47;;;17.80;99.90;;;;;;2112146;28;20122;-67
2022/06/28 03:47:14;;;;;;;64.32;40.67;;;17.80;99.90;;;;;;2103601;28;20747;-68
2022/06/28 03:48:33;;;;;;;61.58;39.97;;;17.80;99.90;;;;;;2107993;28;20508;-67
2022/06/28 03:50:04;;;;;;;61.50;39.05;;;17.80;99.90;;;;;;2103578;28;20028;-67
2022/06/28 03:53:44;;;;;;;50.00;33.33;;;17.80;99.90;;;;;;2112569;28;20032;-67
2022/06/28 03:55:06;;;;;;;60.57;38.97;;;17.90;99.90;;;;;;2111786;28;20028;-66
2022/06/28 03:56:17;;;;;;;51.72;35.08;;;17.90;99.90;;;;;;2105030;28;20641;-66
2022/06/28 03:57:18;;;;;;;50.88;35.75;;;17.90;99.90;;;;;;2103644;28;20032;-66
2022/06/28 03:58:19;;;;;;;51.13;36.13;;;17.80;99.90;;;;;;2095102;28;20758;-66
2022/06/28 03:59:20;;;;;;;55.25;37.92;;;17.90;99.90;;;;;;2103543;28;20077;-66
2022/06/28 04:00:21;;;;;;;57.40;38.67;;;17.80;99.90;;;;;;2103547;28;20028;-66
2022/06/28 04:01:25;;;;;;;78.13;42.10;;;17.80;99.90;;;;;;2103620;28;20547;-65
2022/06/28 04:02:26;;;;;;;57.80;39.13;;;17.70;99.90;;;;;;2112008;28;20062;-66
2022/06/28 04:03:27;;;;;;;67.40;42.58;;;17.70;99.90;;;;;;2103673;28;20517;-66
2022/06/28 04:04:27;;;;;;;69.65;42.47;;;17.70;99.90;;;;;;2103961;28;20032;-66
2022/06/28 04:05:29;;;;;;;75.07;41.50;;;17.70;99.90;;;;;;2112688;28;20568;-66
2022/06/28 04:06:32;;;;;;;76.15;42.85;;;17.60;99.90;;;;;;2111903;28;20028;-67
2022/06/28 04:07:33;;;;;;;54.30;38.50;;;17.70;99.90;;;;;;2112065;28;20107;-67
2022/06/28 04:08:33;;;;;;;61.10;38.88;;;17.70;99.90;;;;;;2111708;28;20016;-66
2022/06/28 04:09:34;;;;;;;54.03;38.03;;;17.70;99.90;;;;;;2112243;28;20028;-67
2022/06/28 04:10:36;;;;;;;67.22;41.45;;;17.70;99.90;;;;;;2104716;28;20111;-65
2022/06/28 04:11:45;;;;;;;51.10;37.13;;;17.70;99.90;;;;;;2106453;28;20028;-67
2022/06/28 04:12:50;;;;;;;71.50;42.53;;;17.70;99.90;;;;;;2113662;28;20647;-67
2022/06/28 04:13:55;;;;;;;68.22;41.67;;;17.60;99.90;;;;;;2113806;28;20023;-66
2022/06/28 04:14:58;;;;;;;62.58;40.83;;;17.50;99.90;;;;;;2105337;28;20028;-67
2022/06/28 04:15:59;;;;;;;52.97;37.80;;;17.50;99.90;;;;;;2096966;28;20040;-67
2022/06/28 04:17:01;;;;;;;52.17;37.95;;;17.60;99.90;;;;;;2096937;28;20115;-67
2022/06/28 04:18:17;;;;;;;82.05;43.90;;;17.60;99.90;;;;;;2100789;28;20094;-65
2022/06/28 04:19:50;;;;;;;77.32;41.38;;;17.50;99.90;;;;;;2109936;28;20070;-66
2022/06/28 04:20:51;;;;;;;74.90;42.83;;;17.40;99.90;;;;;;2113416;28;20429;-67
2022/06/28 04:21:52;;;;;;;61.58;44.20;;;17.30;99.90;;;;;;2104970;28;20032;-66
2022/06/28 04:22:57;;;;;;;56.67;40.60;;;17.30;99.90;;;;;;2105405;28;20836;-67
2022/06/28 04:23:59;;;;;;;56.50;38.97;;;17.40;99.90;;;;;;2113418;28;20019;-67
2022/06/28 04:25:00;;;;;;;53.85;36.95;;;17.50;99.90;;;;;;2105041;28;20074;-67
2022/06/28 04:26:12;;;;;;;64.32;40.88;;;17.60;99.90;;;;;;2106763;28;20520;-67
2022/06/28 04:27:17;;;;;;;57.50;39.08;;;17.50;99.90;;;;;;2105428;28;20032;-67
2022/06/28 04:28:20;;;;;;;80.45;43.33;;;17.50;99.90;;;;;;2105607;28;20103;-68
2022/06/28 04:29:40;;;;;;;50.47;36.80;;;17.50;99.90;;;;;;2113895;28;20031;-68
2022/06/28 04:30:49;;;;;;;51.95;35.53;;;17.50;99.90;;;;;;2113096;28;20035;-69
2022/06/28 04:31:50;;;;;;;49.33;35.95;;;17.60;99.90;;;;;;2113135;28;20039;-68
2022/06/28 04:32:52;;;;;;;58.80;39.05;;;17.60;99.90;;;;;;2113478;28;20111;-67
2022/06/28 04:33:55;;;;;;;65.60;40.78;;;17.60;99.90;;;;;;2105610;28;20035;-67
2022/06/28 04:35:00;;;;;;;51.65;37.58;;;17.50;99.90;;;;;;2105589;28;20068;-67
2022/06/28 04:36:03;;;;;;;47.47;35.33;;;17.50;99.90;;;;;;2105130;28;20571;-66
2022/06/28 04:37:06;;;;;;;83.32;42.30;;;17.60;99.90;;;;;;2097183;28;20426;-67
2022/06/28 04:38:07;;;;;;;74.93;42.38;;;17.60;99.90;;;;;;2097132;28;20442;-67
2022/06/28 04:39:32;;;;;;;56.70;39.65;;;17.50;99.90;;;;;;2114194;28;20787;-67
2022/06/28 04:40:44;;;;;;;80.88;42.90;;;17.40;99.90;;;;;;2113881;28;20038;-66
2022/06/28 04:42:06;;;;;;;54.42;38.53;;;17.50;99.90;;;;;;2105815;28;20050;-67
2022/06/28 04:43:10;;;;;;;63.75;40.25;;;17.40;99.90;;;;;;2100730;28;20032;-66
2022/06/28 04:44:13;;;;;;;59.72;41.75;;;17.30;99.90;;;;;;2105042;28;20095;-68
2022/06/28 04:45:23;;;;;;;80.90;42.65;;;17.30;99.90;;;;;;2113692;28;20040;-67
2022/06/28 04:46:41;;;;;;;59.70;40.20;;;17.30;99.90;;;;;;2107207;28;20480;-69
2022/06/28 04:47:53;;;;;;;54.28;37.95;;;17.40;99.90;;;;;;2106226;28;20119;-69
2022/06/28 04:48:56;;;;;;;55.10;38.63;;;17.50;99.90;;;;;;2113537;28;20056;-69
2022/06/28 04:50:10;;;;;;;46.85;35.47;;;17.50;99.90;;;;;;2105379;28;20671;-67
2022/06/28 04:51:18;;;;;;;44.85;33.83;;;17.60;99.90;;;;;;2100251;28;20062;-70
2022/06/28 04:52:20;;;;;;;70.80;41.60;;;17.70;99.90;;;;;;2113382;28;20073;-67
2022/06/28 04:53:27;;;;;;;62.53;40.38;;;17.60;99.90;;;;;;2104850;28;20060;-65
2022/06/28 04:54:28;;;;;;;53.72;38.20;;;17.50;99.90;;;;;;2105516;28;20027;-68
2022/06/28 04:56:05;;;;;;;61.92;41.08;;;17.60;99.90;;;;;;2099605;28;20036;-67
2022/06/28 04:57:13;;;;;;;54.72;38.30;;;17.50;99.90;;;;;;2104880;28;20028;-66
2022/06/28 04:58:22;;;;;;;53.80;36.30;;;17.50;99.90;;;;;;2090957;28;20519;-67
2022/06/28 04:59:23;;;;;;;56.63;39.80;;;17.60;99.90;;;;;;2089792;28;20037;-66
2022/06/28 05:00:29;;;;;;;61.25;40.97;;;17.60;99.90;;;;;;2096696;28;20056;-67
2022/06/28 05:01:36;;;;;;;60.83;39.95;;;17.50;99.90;;;;;;2105948;28;20039;-66
2022/06/28 05:02:48;;;;;;;52.92;38.72;;;17.50;99.90;;;;;;2104526;28;20036;-70
2022/06/28 05:04:07;;;;;;;47.10;36.05;;;17.60;99.90;;;;;;2104632;28;20040;-67
2022/06/28 05:05:27;;;;;;;44.78;34.40;;;17.60;99.90;;;;;;2114009;28;20039;-68
2022/06/28 05:06:30;;;;;;;47.05;34.25;;;17.70;99.90;;;;;;2104916;28;20112;-66
2022/06/28 05:07:33;;;;;;;56.63;39.35;;;17.70;99.90;;;;;;2097000;28;20065;-67
2022/06/28 05:08:34;;;;;;;45.53;35.05;;;17.70;99.90;;;;;;2112979;28;20099;-68
2022/06/28 05:09:40;;;;;;;58.90;39.40;;;17.70;99.90;;;;;;2113406;28;20505;-66
2022/06/28 05:10:49;;;;;;;62.72;39.75;;;17.70;99.90;;;;;;2097142;28;20033;-66
2022/06/28 05:12:03;;;;;;;47.35;35.70;;;17.70;99.90;;;;;;2101829;28;20131;-66
2022/06/28 05:13:20;;;;;;;51.90;37.03;;;17.70;99.90;;;;;;2105124;28;20397;-65
2022/06/28 05:14:20;;;;;;;52.53;38.00;;;17.70;99.90;;;;;;2113653;28;20860;-69
2022/06/28 05:15:21;;;;;;;51.42;37.90;;;17.60;99.90;;;;;;2113151;28;20107;-69
2022/06/28 05:16:40;;;;;;;47.92;37.22;;;17.60;99.90;;;;;;2107110;28;20118;-67
2022/06/28 05:17:41;;;;;;;57.17;38.95;;;17.60;99.90;;;;;;2104702;28;20032;-68
2022/06/28 05:18:42;;;;;;;51.15;38.90;;;17.60;99.90;;;;;;2104238;28;20043;-69
2022/06/28 05:19:46;;;;;;;42.80;33.40;;;17.60;99.90;;;;;;2113164;28;20034;-67
2022/06/28 05:20:47;;;;;;;47.20;35.17;;;17.80;99.90;;;;;;2104754;28;20028;-68
2022/06/28 05:21:51;;;;;;;42.50;33.40;;;17.80;99.90;;;;;;2112469;28;20634;-67
2022/06/28 05:22:52;;;;;;;36.50;29.88;;;17.90;99.90;;;;;;2105032;28;20563;-67
2022/06/28 05:24:12;;;;;;;45.55;35.08;;;18.00;99.90;;;;;;2107351;28;20028;-66
2022/06/28 05:25:18;;;;;;;42.38;33.22;;;18.10;99.90;;;;;;2105049;28;20077;-67
2022/06/28 05:26:24;;;;;;;39.05;31.27;;;18.20;99.90;;;;;;2112944;28;20112;-65
2022/06/28 05:27:43;;;;;;;38.92;30.45;;;18.30;99.90;;;;;;2107872;28;20579;-68
2022/06/28 05:28:46;;;;;;;34.33;28.13;;;18.50;99.90;;;;;;2104384;28;20047;-68
2022/06/28 05:29:47;;;;;;;41.40;32.90;;;18.50;99.90;;;;;;2104748;28;20027;-67
2022/06/28 05:30:48;;;;;;;38.33;32.65;;;18.60;99.90;;;;;;2104509;28;20061;-67
2022/06/28 05:31:49;;;;;;;43.03;33.92;;;18.70;99.90;;;;;;2112657;28;20397;-67
2022/06/28 05:32:52;;;;;;;40.60;31.63;;;18.70;99.90;;;;;;2113005;28;20023;-66
2022/06/28 05:33:55;;;;;;;39.08;32.22;;;18.80;99.90;;;;;;2112961;28;20124;-67
2022/06/28 05:34:56;;;;;;;40.13;32.50;;;18.80;99.90;;;;;;2105003;28;20455;-68
2022/06/28 05:35:57;;;;;;;36.90;30.67;;;18.80;99.90;;;;;;2112855;28;20023;-66